sensor_id;sensor_type;location;lat;lon;timestamp;P1;durP1;ratioP1;P2;durP2;ratioP2
6561;SDS011;3314;50.890;4.722;2023-04-24T00:00:57;17.7;;;5.4;;
6561;SDS011;3314;50.890;4.722;2023-04-24T00:02:57;19.5;;;6.3;;
6561;SDS011;3314;50.890;4.722;2023-04-24T00:04:57;18.9;;;6.2;;
6561;SDS011;3314;50.890;4.722;2023-04-24T00:06:57;16.0;;;5.7;;
6561;SDS011;3314;50.890;4.722;2023-04-24T00:08:57;17.1;;;6.7;;
6561;SDS011;3314;50.890;4.722;2023-04-24T00:10:56;18.5;;;6.8;;
6561;SDS011;3314;50.890;4.722;2023-04-24T00:12:56;17.1;;;6.2;;
6561;SDS011;3314;50.890;4.722;2023-04-24T00:14:56;15.2;;;6.5;;
6561;SDS011;3314;50.890;4.722;2023-04-24T00:16:55;20.6;;;6.8;;
6561;SDS011;3314;50.890;4.722;2023-04-24T00:18:55;20.2;;;6.6;;
6561;SDS011;3314;50.890;4.722;2023-04-24T00:20:55;17.1;;;6.8;;
6561;SDS011;3314;50.890;4.722;2023-04-24T00:22:54;21.7;;;6.6;;
6561;SDS011;3314;50.890;4.722;2023-04-24T00:24:54;18.0;;;6.9;;
6561;SDS011;3314;50.890;4.722;2023-04-24T00:26:54;19.4;;;6.4;;
6561;SDS011;3314;50.890;4.722;2023-04-24T00:28:53;16.6;;;6.3;;
6561;SDS011;3314;50.890;4.722;2023-04-24T00:30:53;17.5;;;6.3;;
6561;SDS011;3314;50.890;4.722;2023-04-24T00:32:53;17.3;;;7.2;;
6561;SDS011;3314;50.890;4.722;2023-04-24T00:34:53;16.4;;;6.0;;
6561;SDS011;3314;50.890;4.722;2023-04-24T00:36:52;19.8;;;6.1;;
6561;SDS011;3314;50.890;4.722;2023-04-24T00:38:52;21.1;;;6.6;;
6561;SDS011;3314;50.890;4.722;2023-04-24T00:40:52;19.3;;;6.6;;
6561;SDS011;3314;50.890;4.722;2023-04-24T00:42:51;15.6;;;5.9;;
6561;SDS011;3314;50.890;4.722;2023-04-24T00:44:51;14.2;;;6.2;;
6561;SDS011;3314;50.890;4.722;2023-04-24T00:46:54;15.3;;;6.2;;
6561;SDS011;3314;50.890;4.722;2023-04-24T00:48:55;15.9;;;7.8;;
6561;SDS011;3314;50.890;4.722;2023-04-24T00:50:55;18.9;;;6.4;;
6561;SDS011;3314;50.890;4.722;2023-04-24T00:52:55;18.2;;;7.1;;
6561;SDS011;3314;50.890;4.722;2023-04-24T00:54:55;18.6;;;6.0;;
6561;SDS011;3314;50.890;4.722;2023-04-24T00:56:55;21.6;;;7.1;;
6561;SDS011;3314;50.890;4.722;2023-04-24T00:58:45;15.3;;;5.9;;
6561;SDS011;3314;50.890;4.722;2023-04-24T01:00:45;19.0;;;6.4;;
6561;SDS011;3314;50.890;4.722;2023-04-24T01:02:45;18.0;;;6.6;;
6561;SDS011;3314;50.890;4.722;2023-04-24T01:04:45;16.6;;;6.9;;
6561;SDS011;3314;50.890;4.722;2023-04-24T01:06:45;21.2;;;6.6;;
6561;SDS011;3314;50.890;4.722;2023-04-24T01:08:45;15.4;;;6.2;;
6561;SDS011;3314;50.890;4.722;2023-04-24T01:10:46;21.0;;;6.2;;
6561;SDS011;3314;50.890;4.722;2023-04-24T01:12:47;18.2;;;6.3;;
6561;SDS011;3314;50.890;4.722;2023-04-24T01:14:46;19.2;;;7.3;;
6561;SDS011;3314;50.890;4.722;2023-04-24T01:16:46;17.7;;;6.8;;
6561;SDS011;3314;50.890;4.722;2023-04-24T01:18:46;17.8;;;7.2;;
6561;SDS011;3314;50.890;4.722;2023-04-24T01:20:47;18.2;;;6.4;;
6561;SDS011;3314;50.890;4.722;2023-04-24T01:22:48;16.5;;;7.0;;
6561;SDS011;3314;50.890;4.722;2023-04-24T01:24:48;19.1;;;6.4;;
6561;SDS011;3314;50.890;4.722;2023-04-24T01:26:47;19.1;;;6.2;;
6561;SDS011;3314;50.890;4.722;2023-04-24T01:28:47;16.9;;;5.9;;
6561;SDS011;3314;50.890;4.722;2023-04-24T01:30:47;19.9;;;7.0;;
6561;SDS011;3314;50.890;4.722;2023-04-24T01:32:47;14.5;;;5.6;;
6561;SDS011;3314;50.890;4.722;2023-04-24T01:34:48;16.4;;;6.4;;
6561;SDS011;3314;50.890;4.722;2023-04-24T01:36:47;13.8;;;5.7;;
6561;SDS011;3314;50.890;4.722;2023-04-24T01:38:47;15.9;;;6.1;;
6561;SDS011;3314;50.890;4.722;2023-04-24T01:40:47;17.9;;;5.5;;
6561;SDS011;3314;50.890;4.722;2023-04-24T01:42:46;19.5;;;6.5;;
6561;SDS011;3314;50.890;4.722;2023-04-24T01:44:46;16.3;;;6.1;;
6561;SDS011;3314;50.890;4.722;2023-04-24T01:46:46;13.7;;;5.6;;
6561;SDS011;3314;50.890;4.722;2023-04-24T01:48:46;15.6;;;5.6;;
6561;SDS011;3314;50.890;4.722;2023-04-24T01:50:45;17.2;;;5.2;;
6561;SDS011;3314;50.890;4.722;2023-04-24T01:52:45;14.7;;;5.3;;
6561;SDS011;3314;50.890;4.722;2023-04-24T01:54:45;13.0;;;5.1;;
6561;SDS011;3314;50.890;4.722;2023-04-24T01:56:45;12.7;;;4.7;;
6561;SDS011;3314;50.890;4.722;2023-04-24T01:58:45;14.7;;;5.3;;
6561;SDS011;3314;50.890;4.722;2023-04-24T02:00:44;16.2;;;5.2;;
6561;SDS011;3314;50.890;4.722;2023-04-24T02:02:44;13.7;;;5.5;;
6561;SDS011;3314;50.890;4.722;2023-04-24T02:04:34;15.7;;;5.2;;
6561;SDS011;3314;50.890;4.722;2023-04-24T02:06:34;11.2;;;5.4;;
6561;SDS011;3314;50.890;4.722;2023-04-24T02:08:33;13.9;;;4.8;;
6561;SDS011;3314;50.890;4.722;2023-04-24T02:10:33;12.1;;;4.6;;
6561;SDS011;3314;50.890;4.722;2023-04-24T02:12:33;16.3;;;5.0;;
6561;SDS011;3314;50.890;4.722;2023-04-24T02:14:32;12.7;;;4.3;;
6561;SDS011;3314;50.890;4.722;2023-04-24T02:16:34;16.0;;;5.8;;
6561;SDS011;3314;50.890;4.722;2023-04-24T02:18:33;14.9;;;5.3;;
6561;SDS011;3314;50.890;4.722;2023-04-24T02:20:34;13.8;;;4.5;;
6561;SDS011;3314;50.890;4.722;2023-04-24T02:22:34;14.2;;;5.3;;
6561;SDS011;3314;50.890;4.722;2023-04-24T02:24:34;14.8;;;5.0;;
6561;SDS011;3314;50.890;4.722;2023-04-24T02:26:33;13.8;;;5.0;;
6561;SDS011;3314;50.890;4.722;2023-04-24T02:28:33;13.8;;;4.7;;
6561;SDS011;3314;50.890;4.722;2023-04-24T02:30:33;12.0;;;5.3;;
6561;SDS011;3314;50.890;4.722;2023-04-24T02:32:32;15.3;;;5.4;;
6561;SDS011;3314;50.890;4.722;2023-04-24T02:34:32;19.9;;;5.8;;
6561;SDS011;3314;50.890;4.722;2023-04-24T02:36:32;16.1;;;5.6;;
6561;SDS011;3314;50.890;4.722;2023-04-24T02:38:32;18.5;;;6.2;;
6561;SDS011;3314;50.890;4.722;2023-04-24T02:40:31;18.8;;;5.7;;
6561;SDS011;3314;50.890;4.722;2023-04-24T02:42:31;13.9;;;6.1;;
6561;SDS011;3314;50.890;4.722;2023-04-24T02:44:31;15.4;;;5.9;;
6561;SDS011;3314;50.890;4.722;2023-04-24T02:46:31;17.7;;;6.6;;
6561;SDS011;3314;50.890;4.722;2023-04-24T02:48:31;16.2;;;5.8;;
6561;SDS011;3314;50.890;4.722;2023-04-24T02:50:32;15.3;;;6.2;;
6561;SDS011;3314;50.890;4.722;2023-04-24T02:52:31;15.0;;;5.9;;
6561;SDS011;3314;50.890;4.722;2023-04-24T02:54:31;15.8;;;5.3;;
6561;SDS011;3314;50.890;4.722;2023-04-24T02:56:31;21.2;;;6.1;;
6561;SDS011;3314;50.890;4.722;2023-04-24T02:58:30;13.8;;;5.9;;
6561;SDS011;3314;50.890;4.722;2023-04-24T03:00:30;17.2;;;6.2;;
6561;SDS011;3314;50.890;4.722;2023-04-24T03:02:30;16.9;;;5.9;;
6561;SDS011;3314;50.890;4.722;2023-04-24T03:04:30;17.2;;;5.9;;
6561;SDS011;3314;50.890;4.722;2023-04-24T03:06:31;16.9;;;5.4;;
6561;SDS011;3314;50.890;4.722;2023-04-24T03:08:31;13.9;;;5.3;;
6561;SDS011;3314;50.890;4.722;2023-04-24T03:10:31;13.7;;;5.0;;
6561;SDS011;3314;50.890;4.722;2023-04-24T03:12:30;17.1;;;5.8;;
6561;SDS011;3314;50.890;4.722;2023-04-24T03:14:31;12.4;;;4.3;;
6561;SDS011;3314;50.890;4.722;2023-04-24T03:16:31;15.7;;;5.9;;
6561;SDS011;3314;50.890;4.722;2023-04-24T03:18:31;14.7;;;5.6;;
6561;SDS011;3314;50.890;4.722;2023-04-24T03:20:30;18.0;;;6.4;;
6561;SDS011;3314;50.890;4.722;2023-04-24T03:22:30;12.5;;;5.2;;
6561;SDS011;3314;50.890;4.722;2023-04-24T03:24:31;13.4;;;4.8;;
6561;SDS011;3314;50.890;4.722;2023-04-24T03:26:30;12.7;;;4.9;;
6561;SDS011;3314;50.890;4.722;2023-04-24T03:28:30;16.4;;;4.6;;
6561;SDS011;3314;50.890;4.722;2023-04-24T03:30:30;12.4;;;4.4;;
6561;SDS011;3314;50.890;4.722;2023-04-24T03:32:30;14.4;;;5.7;;
6561;SDS011;3314;50.890;4.722;2023-04-24T03:34:29;13.2;;;5.2;;
6561;SDS011;3314;50.890;4.722;2023-04-24T03:36:29;10.9;;;4.7;;
6561;SDS011;3314;50.890;4.722;2023-04-24T03:38:29;12.4;;;4.4;;
6561;SDS011;3314;50.890;4.722;2023-04-24T03:40:29;12.7;;;4.2;;
6561;SDS011;3314;50.890;4.722;2023-04-24T03:42:18;15.1;;;4.3;;
6561;SDS011;3314;50.890;4.722;2023-04-24T03:44:18;11.8;;;4.7;;
6561;SDS011;3314;50.890;4.722;2023-04-24T03:46:17;12.7;;;4.7;;
6561;SDS011;3314;50.890;4.722;2023-04-24T03:48:17;11.2;;;4.1;;
6561;SDS011;3314;50.890;4.722;2023-04-24T03:50:17;15.0;;;5.1;;
6561;SDS011;3314;50.890;4.722;2023-04-24T03:52:16;12.0;;;4.7;;
6561;SDS011;3314;50.890;4.722;2023-04-24T03:54:16;12.1;;;4.4;;
6561;SDS011;3314;50.890;4.722;2023-04-24T03:56:16;10.8;;;3.8;;
6561;SDS011;3314;50.890;4.722;2023-04-24T03:58:16;12.2;;;4.2;;
6561;SDS011;3314;50.890;4.722;2023-04-24T04:00:16;10.7;;;3.9;;
6561;SDS011;3314;50.890;4.722;2023-04-24T04:02:15;10.2;;;3.7;;
6561;SDS011;3314;50.890;4.722;2023-04-24T04:04:15;11.6;;;3.8;;
6561;SDS011;3314;50.890;4.722;2023-04-24T04:06:15;9.1;;;3.6;;
6561;SDS011;3314;50.890;4.722;2023-04-24T04:08:15;11.9;;;3.5;;
6561;SDS011;3314;50.890;4.722;2023-04-24T04:10:14;12.8;;;3.6;;
6561;SDS011;3314;50.890;4.722;2023-04-24T04:12:14;10.9;;;4.2;;
6561;SDS011;3314;50.890;4.722;2023-04-24T04:14:14;11.5;;;4.3;;
6561;SDS011;3314;50.890;4.722;2023-04-24T04:16:13;10.3;;;3.4;;
6561;SDS011;3314;50.890;4.722;2023-04-24T04:18:13;10.6;;;3.3;;
6561;SDS011;3314;50.890;4.722;2023-04-24T04:20:13;9.8;;;3.3;;
6561;SDS011;3314;50.890;4.722;2023-04-24T04:22:13;8.6;;;2.9;;
6561;SDS011;3314;50.890;4.722;2023-04-24T04:24:13;12.1;;;2.9;;
6561;SDS011;3314;50.890;4.722;2023-04-24T04:26:13;10.5;;;2.7;;
6561;SDS011;3314;50.890;4.722;2023-04-24T04:28:13;10.8;;;2.8;;
6561;SDS011;3314;50.890;4.722;2023-04-24T04:30:13;11.3;;;3.3;;
6561;SDS011;3314;50.890;4.722;2023-04-24T04:32:13;7.9;;;2.3;;
6561;SDS011;3314;50.890;4.722;2023-04-24T04:34:13;12.3;;;2.8;;
6561;SDS011;3314;50.890;4.722;2023-04-24T04:36:13;7.9;;;2.6;;
6561;SDS011;3314;50.890;4.722;2023-04-24T04:38:13;11.4;;;2.5;;
6561;SDS011;3314;50.890;4.722;2023-04-24T04:40:13;7.5;;;2.2;;
6561;SDS011;3314;50.890;4.722;2023-04-24T04:42:13;8.5;;;2.4;;
6561;SDS011;3314;50.890;4.722;2023-04-24T04:44:14;10.4;;;2.7;;
6561;SDS011;3314;50.890;4.722;2023-04-24T04:46:14;7.3;;;2.4;;
6561;SDS011;3314;50.890;4.722;2023-04-24T04:48:14;8.5;;;2.6;;
6561;SDS011;3314;50.890;4.722;2023-04-24T04:50:14;8.7;;;1.8;;
6561;SDS011;3314;50.890;4.722;2023-04-24T04:52:13;10.4;;;2.0;;
6561;SDS011;3314;50.890;4.722;2023-04-24T04:54:13;9.7;;;2.7;;
6561;SDS011;3314;50.890;4.722;2023-04-24T04:56:13;12.3;;;3.1;;
6561;SDS011;3314;50.890;4.722;2023-04-24T04:58:12;10.4;;;2.4;;
6561;SDS011;3314;50.890;4.722;2023-04-24T05:00:12;9.1;;;2.5;;
6561;SDS011;3314;50.890;4.722;2023-04-24T05:02:12;7.7;;;2.5;;
6561;SDS011;3314;50.890;4.722;2023-04-24T05:04:12;8.3;;;2.1;;
6561;SDS011;3314;50.890;4.722;2023-04-24T05:06:12;8.2;;;2.8;;
6561;SDS011;3314;50.890;4.722;2023-04-24T05:08:11;8.3;;;2.9;;
6561;SDS011;3314;50.890;4.722;2023-04-24T05:10:11;10.0;;;3.3;;
6561;SDS011;3314;50.890;4.722;2023-04-24T05:12:11;9.1;;;3.2;;
6561;SDS011;3314;50.890;4.722;2023-04-24T05:14:11;11.8;;;3.4;;
6561;SDS011;3314;50.890;4.722;2023-04-24T05:16:10;11.1;;;4.1;;
6561;SDS011;3314;50.890;4.722;2023-04-24T05:18:10;12.5;;;4.6;;
6561;SDS011;3314;50.890;4.722;2023-04-24T05:20:10;14.5;;;4.4;;
6561;SDS011;3314;50.890;4.722;2023-04-24T05:22:12;12.5;;;4.5;;
6561;SDS011;3314;50.890;4.722;2023-04-24T05:24:11;12.7;;;4.5;;
6561;SDS011;3314;50.890;4.722;2023-04-24T05:26:01;12.4;;;4.5;;
6561;SDS011;3314;50.890;4.722;2023-04-24T05:28:01;14.6;;;4.9;;
6561;SDS011;3314;50.890;4.722;2023-04-24T05:30:00;11.4;;;4.1;;
6561;SDS011;3314;50.890;4.722;2023-04-24T05:32:00;11.2;;;4.1;;
6561;SDS011;3314;50.890;4.722;2023-04-24T05:34:00;10.3;;;3.8;;
6561;SDS011;3314;50.890;4.722;2023-04-24T05:36:00;11.2;;;4.5;;
6561;SDS011;3314;50.890;4.722;2023-04-24T05:37:59;13.0;;;4.9;;
6561;SDS011;3314;50.890;4.722;2023-04-24T05:39:59;13.5;;;4.8;;
6561;SDS011;3314;50.890;4.722;2023-04-24T05:41:59;11.9;;;4.2;;
6561;SDS011;3314;50.890;4.722;2023-04-24T05:43:59;12.3;;;4.1;;
6561;SDS011;3314;50.890;4.722;2023-04-24T05:45:59;13.6;;;4.3;;
6561;SDS011;3314;50.890;4.722;2023-04-24T05:47:58;12.5;;;4.2;;
6561;SDS011;3314;50.890;4.722;2023-04-24T05:49:58;11.8;;;4.3;;
6561;SDS011;3314;50.890;4.722;2023-04-24T05:51:58;14.3;;;5.3;;
6561;SDS011;3314;50.890;4.722;2023-04-24T05:53:57;14.8;;;5.2;;
6561;SDS011;3314;50.890;4.722;2023-04-24T05:55:57;12.8;;;4.7;;
6561;SDS011;3314;50.890;4.722;2023-04-24T05:57:57;15.9;;;5.0;;
6561;SDS011;3314;50.890;4.722;2023-04-24T05:59:56;16.1;;;4.7;;
6561;SDS011;3314;50.890;4.722;2023-04-24T06:01:56;12.8;;;4.3;;
6561;SDS011;3314;50.890;4.722;2023-04-24T06:03:56;13.1;;;4.9;;
6561;SDS011;3314;50.890;4.722;2023-04-24T06:05:55;11.5;;;4.6;;
6561;SDS011;3314;50.890;4.722;2023-04-24T06:07:55;15.8;;;5.6;;
6561;SDS011;3314;50.890;4.722;2023-04-24T06:09:56;15.7;;;5.2;;
6561;SDS011;3314;50.890;4.722;2023-04-24T06:11:56;13.8;;;4.9;;
6561;SDS011;3314;50.890;4.722;2023-04-24T06:13:56;13.7;;;5.0;;
6561;SDS011;3314;50.890;4.722;2023-04-24T06:15:56;14.0;;;4.6;;
6561;SDS011;3314;50.890;4.722;2023-04-24T06:17:56;17.3;;;5.2;;
6561;SDS011;3314;50.890;4.722;2023-04-24T06:19:55;17.6;;;4.9;;
6561;SDS011;3314;50.890;4.722;2023-04-24T06:21:55;15.1;;;5.5;;
6561;SDS011;3314;50.890;4.722;2023-04-24T06:23:56;17.0;;;4.8;;
6561;SDS011;3314;50.890;4.722;2023-04-24T06:25:56;13.5;;;4.3;;
6561;SDS011;3314;50.890;4.722;2023-04-24T06:27:56;16.7;;;5.7;;
6561;SDS011;3314;50.890;4.722;2023-04-24T06:29:55;18.0;;;6.2;;
6561;SDS011;3314;50.890;4.722;2023-04-24T06:31:55;20.0;;;5.5;;
6561;SDS011;3314;50.890;4.722;2023-04-24T06:33:55;12.6;;;5.4;;
6561;SDS011;3314;50.890;4.722;2023-04-24T06:35:54;13.6;;;5.5;;
6561;SDS011;3314;50.890;4.722;2023-04-24T06:37:56;13.7;;;5.3;;
6561;SDS011;3314;50.890;4.722;2023-04-24T06:39:56;16.7;;;6.2;;
6561;SDS011;3314;50.890;4.722;2023-04-24T06:41:56;17.0;;;6.0;;
6561;SDS011;3314;50.890;4.722;2023-04-24T06:43:56;14.9;;;5.0;;
6561;SDS011;3314;50.890;4.722;2023-04-24T06:45:55;16.7;;;6.3;;
6561;SDS011;3314;50.890;4.722;2023-04-24T06:47:55;15.6;;;6.0;;
6561;SDS011;3314;50.890;4.722;2023-04-24T06:49:55;16.6;;;5.8;;
6561;SDS011;3314;50.890;4.722;2023-04-24T06:51:55;24.6;;;6.7;;
6561;SDS011;3314;50.890;4.722;2023-04-24T06:53:56;18.3;;;6.4;;
6561;SDS011;3314;50.890;4.722;2023-04-24T06:55:56;20.5;;;6.6;;
6561;SDS011;3314;50.890;4.722;2023-04-24T06:57:45;17.1;;;6.2;;
6561;SDS011;3314;50.890;4.722;2023-04-24T06:59:45;18.5;;;6.1;;
6561;SDS011;3314;50.890;4.722;2023-04-24T07:01:45;18.6;;;6.3;;
6561;SDS011;3314;50.890;4.722;2023-04-24T07:03:45;20.8;;;6.4;;
6561;SDS011;3314;50.890;4.722;2023-04-24T07:05:44;22.4;;;6.6;;
6561;SDS011;3314;50.890;4.722;2023-04-24T07:07:46;20.0;;;7.2;;
6561;SDS011;3314;50.890;4.722;2023-04-24T07:09:46;21.7;;;7.6;;
6561;SDS011;3314;50.890;4.722;2023-04-24T07:11:46;20.4;;;6.3;;
6561;SDS011;3314;50.890;4.722;2023-04-24T07:13:46;22.3;;;7.9;;
6561;SDS011;3314;50.890;4.722;2023-04-24T07:15:46;18.1;;;6.5;;
6561;SDS011;3314;50.890;4.722;2023-04-24T07:17:46;15.7;;;6.5;;
6561;SDS011;3314;50.890;4.722;2023-04-24T07:19:46;21.6;;;6.5;;
6561;SDS011;3314;50.890;4.722;2023-04-24T07:21:46;22.2;;;7.5;;
6561;SDS011;3314;50.890;4.722;2023-04-24T07:23:45;19.2;;;7.2;;
6561;SDS011;3314;50.890;4.722;2023-04-24T07:25:45;22.2;;;7.3;;
6561;SDS011;3314;50.890;4.722;2023-04-24T07:27:45;17.8;;;7.2;;
6561;SDS011;3314;50.890;4.722;2023-04-24T07:29:45;20.1;;;7.4;;
6561;SDS011;3314;50.890;4.722;2023-04-24T07:31:45;18.5;;;6.2;;
6561;SDS011;3314;50.890;4.722;2023-04-24T07:33:44;19.0;;;6.6;;
6561;SDS011;3314;50.890;4.722;2023-04-24T07:35:44;19.1;;;7.2;;
6561;SDS011;3314;50.890;4.722;2023-04-24T07:37:46;20.5;;;7.2;;
6561;SDS011;3314;50.890;4.722;2023-04-24T07:39:46;15.6;;;6.3;;
6561;SDS011;3314;50.890;4.722;2023-04-24T07:41:45;18.7;;;7.2;;
6561;SDS011;3314;50.890;4.722;2023-04-24T07:43:46;16.4;;;7.0;;
6561;SDS011;3314;50.890;4.722;2023-04-24T07:45:45;19.3;;;7.3;;
6561;SDS011;3314;50.890;4.722;2023-04-24T07:47:46;20.3;;;7.6;;
6561;SDS011;3314;50.890;4.722;2023-04-24T07:49:45;14.5;;;6.6;;
6561;SDS011;3314;50.890;4.722;2023-04-24T07:51:45;20.5;;;7.5;;
6561;SDS011;3314;50.890;4.722;2023-04-24T07:53:45;20.2;;;8.0;;
6561;SDS011;3314;50.890;4.722;2023-04-24T07:55:45;20.2;;;7.9;;
6561;SDS011;3314;50.890;4.722;2023-04-24T07:57:45;19.2;;;7.2;;
6561;SDS011;3314;50.890;4.722;2023-04-24T07:59:44;19.6;;;7.2;;
6561;SDS011;3314;50.890;4.722;2023-04-24T08:01:44;18.9;;;7.0;;
6561;SDS011;3314;50.890;4.722;2023-04-24T08:03:44;18.8;;;6.9;;
6561;SDS011;3314;50.890;4.722;2023-04-24T08:05:43;20.7;;;6.6;;
6561;SDS011;3314;50.890;4.722;2023-04-24T08:07:43;16.1;;;6.5;;
6561;SDS011;3314;50.890;4.722;2023-04-24T08:09:43;17.9;;;7.5;;
6561;SDS011;3314;50.890;4.722;2023-04-24T08:11:42;18.7;;;7.3;;
6561;SDS011;3314;50.890;4.722;2023-04-24T08:13:42;15.4;;;6.6;;
6561;SDS011;3314;50.890;4.722;2023-04-24T08:15:42;19.8;;;7.0;;
6561;SDS011;3314;50.890;4.722;2023-04-24T08:17:41;19.4;;;7.1;;
6561;SDS011;3314;50.890;4.722;2023-04-24T08:19:47;20.1;;;6.4;;
6561;SDS011;3314;50.890;4.722;2023-04-24T08:21:35;22.8;;;6.5;;
6561;SDS011;3314;50.890;4.722;2023-04-24T08:23:35;16.8;;;5.6;;
6561;SDS011;3314;50.890;4.722;2023-04-24T08:25:35;16.6;;;6.3;;
6561;SDS011;3314;50.890;4.722;2023-04-24T08:27:37;16.7;;;5.4;;
6561;SDS011;3314;50.890;4.722;2023-04-24T08:29:36;15.8;;;5.6;;
6561;SDS011;3314;50.890;4.722;2023-04-24T08:31:36;17.6;;;4.8;;
6561;SDS011;3314;50.890;4.722;2023-04-24T08:33:36;15.1;;;4.1;;
6561;SDS011;3314;50.890;4.722;2023-04-24T08:35:36;14.5;;;4.4;;
6561;SDS011;3314;50.890;4.722;2023-04-24T08:37:36;14.5;;;4.8;;
6561;SDS011;3314;50.890;4.722;2023-04-24T08:39:36;13.4;;;4.3;;
6561;SDS011;3314;50.890;4.722;2023-04-24T08:41:36;13.1;;;4.6;;
6561;SDS011;3314;50.890;4.722;2023-04-24T08:43:37;14.9;;;4.7;;
6561;SDS011;3314;50.890;4.722;2023-04-24T08:45:27;14.1;;;4.1;;
6561;SDS011;3314;50.890;4.722;2023-04-24T08:47:32;11.4;;;3.9;;
6561;SDS011;3314;50.890;4.722;2023-04-24T08:49:32;16.5;;;4.6;;
6561;SDS011;3314;50.890;4.722;2023-04-24T08:51:32;19.4;;;4.5;;
6561;SDS011;3314;50.890;4.722;2023-04-24T08:53:32;18.2;;;4.9;;
6561;SDS011;3314;50.890;4.722;2023-04-24T08:55:32;18.2;;;5.4;;
6561;SDS011;3314;50.890;4.722;2023-04-24T08:57:32;17.0;;;4.9;;
6561;SDS011;3314;50.890;4.722;2023-04-24T08:59:32;17.8;;;5.3;;
6561;SDS011;3314;50.890;4.722;2023-04-24T09:01:32;13.8;;;4.9;;
6561;SDS011;3314;50.890;4.722;2023-04-24T09:03:32;20.7;;;5.1;;
6561;SDS011;3314;50.890;4.722;2023-04-24T09:05:32;20.8;;;5.5;;
6561;SDS011;3314;50.890;4.722;2023-04-24T09:07:32;10.1;;;4.0;;
6561;SDS011;3314;50.890;4.722;2023-04-24T09:09:23;19.2;;;4.7;;
6561;SDS011;3314;50.890;4.722;2023-04-24T09:11:24;17.3;;;5.1;;
6561;SDS011;3314;50.890;4.722;2023-04-24T09:13:24;13.1;;;4.3;;
6561;SDS011;3314;50.890;4.722;2023-04-24T09:15:24;15.7;;;4.2;;
6561;SDS011;3314;50.890;4.722;2023-04-24T09:17:24;11.6;;;4.5;;
6561;SDS011;3314;50.890;4.722;2023-04-24T09:19:23;17.8;;;4.0;;
6561;SDS011;3314;50.890;4.722;2023-04-24T09:21:23;14.8;;;4.0;;
6561;SDS011;3314;50.890;4.722;2023-04-24T09:23:23;16.1;;;4.3;;
6561;SDS011;3314;50.890;4.722;2023-04-24T09:25:25;11.6;;;3.6;;
6561;SDS011;3314;50.890;4.722;2023-04-24T09:27:30;17.2;;;4.2;;
6561;SDS011;3314;50.890;4.722;2023-04-24T09:29:20;13.2;;;4.3;;
6561;SDS011;3314;50.890;4.722;2023-04-24T09:31:21;11.7;;;3.7;;
6561;SDS011;3314;50.890;4.722;2023-04-24T09:33:21;13.9;;;3.9;;
6561;SDS011;3314;50.890;4.722;2023-04-24T09:35:21;10.7;;;3.2;;
6561;SDS011;3314;50.890;4.722;2023-04-24T09:37:29;10.8;;;3.1;;
6561;SDS011;3314;50.890;4.722;2023-04-24T09:39:20;13.0;;;3.8;;
6561;SDS011;3314;50.890;4.722;2023-04-24T09:41:20;15.7;;;3.9;;
6561;SDS011;3314;50.890;4.722;2023-04-24T09:43:19;12.6;;;3.2;;
6561;SDS011;3314;50.890;4.722;2023-04-24T09:45:20;12.4;;;3.4;;
6561;SDS011;3314;50.890;4.722;2023-04-24T09:47:19;14.9;;;3.9;;
6561;SDS011;3314;50.890;4.722;2023-04-24T09:49:21;11.2;;;3.3;;
6561;SDS011;3314;50.890;4.722;2023-04-24T09:51:21;15.6;;;3.5;;
6561;SDS011;3314;50.890;4.722;2023-04-24T09:53:22;16.8;;;3.6;;
6561;SDS011;3314;50.890;4.722;2023-04-24T09:55:23;12.8;;;3.5;;
6561;SDS011;3314;50.890;4.722;2023-04-24T09:57:23;14.3;;;3.5;;
6561;SDS011;3314;50.890;4.722;2023-04-24T09:59:23;10.4;;;2.9;;
6561;SDS011;3314;50.890;4.722;2023-04-24T10:01:30;15.5;;;3.2;;
6561;SDS011;3314;50.890;4.722;2023-04-24T10:03:17;11.6;;;2.6;;
6561;SDS011;3314;50.890;4.722;2023-04-24T10:05:17;13.1;;;2.6;;
6561;SDS011;3314;50.890;4.722;2023-04-24T10:07:17;13.7;;;2.9;;
6561;SDS011;3314;50.890;4.722;2023-04-24T10:09:17;11.3;;;2.6;;
6561;SDS011;3314;50.890;4.722;2023-04-24T10:11:17;12.7;;;2.1;;
6561;SDS011;3314;50.890;4.722;2023-04-24T10:13:17;11.9;;;2.7;;
6561;SDS011;3314;50.890;4.722;2023-04-24T10:15:21;10.6;;;2.4;;
6561;SDS011;3314;50.890;4.722;2023-04-24T10:17:21;12.1;;;2.4;;
6561;SDS011;3314;50.890;4.722;2023-04-24T10:19:21;11.8;;;2.1;;
6561;SDS011;3314;50.890;4.722;2023-04-24T10:21:12;12.4;;;2.5;;
6561;SDS011;3314;50.890;4.722;2023-04-24T10:23:12;13.4;;;2.8;;
6561;SDS011;3314;50.890;4.722;2023-04-24T10:25:11;11.5;;;3.0;;
6561;SDS011;3314;50.890;4.722;2023-04-24T10:27:11;11.1;;;2.8;;
6561;SDS011;3314;50.890;4.722;2023-04-24T10:29:13;14.5;;;3.0;;
6561;SDS011;3314;50.890;4.722;2023-04-24T10:31:14;11.2;;;2.5;;
6561;SDS011;3314;50.890;4.722;2023-04-24T10:33:14;10.5;;;2.4;;
6561;SDS011;3314;50.890;4.722;2023-04-24T10:35:15;10.5;;;2.3;;
6561;SDS011;3314;50.890;4.722;2023-04-24T10:37:15;11.9;;;2.7;;
6561;SDS011;3314;50.890;4.722;2023-04-24T10:39:16;11.1;;;2.7;;
6561;SDS011;3314;50.890;4.722;2023-04-24T10:41:20;11.0;;;2.4;;
6561;SDS011;3314;50.890;4.722;2023-04-24T10:43:11;7.4;;;1.9;;
6561;SDS011;3314;50.890;4.722;2023-04-24T10:45:16;11.3;;;2.8;;
6561;SDS011;3314;50.890;4.722;2023-04-24T10:47:16;14.7;;;3.2;;
6561;SDS011;3314;50.890;4.722;2023-04-24T10:49:16;9.6;;;2.5;;
6561;SDS011;3314;50.890;4.722;2023-04-24T10:51:15;10.5;;;2.7;;
6561;SDS011;3314;50.890;4.722;2023-04-24T10:53:16;11.6;;;2.8;;
6561;SDS011;3314;50.890;4.722;2023-04-24T10:55:16;13.8;;;3.3;;
6561;SDS011;3314;50.890;4.722;2023-04-24T10:57:31;10.2;;;2.6;;
6561;SDS011;3314;50.890;4.722;2023-04-24T10:59:07;10.5;;;3.0;;
6561;SDS011;3314;50.890;4.722;2023-04-24T11:01:07;13.9;;;2.3;;
6561;SDS011;3314;50.890;4.722;2023-04-24T11:03:09;10.3;;;2.5;;
6561;SDS011;3314;50.890;4.722;2023-04-24T11:05:11;10.9;;;3.0;;
6561;SDS011;3314;50.890;4.722;2023-04-24T11:07:13;9.5;;;2.3;;
6561;SDS011;3314;50.890;4.722;2023-04-24T11:09:14;13.1;;;2.7;;
6561;SDS011;3314;50.890;4.722;2023-04-24T11:11:15;10.5;;;2.4;;
6561;SDS011;3314;50.890;4.722;2023-04-24T11:13:04;9.4;;;2.2;;
6561;SDS011;3314;50.890;4.722;2023-04-24T11:15:04;10.6;;;2.7;;
6561;SDS011;3314;50.890;4.722;2023-04-24T11:17:26;15.5;;;3.8;;
6561;SDS011;3314;50.890;4.722;2023-04-24T11:19:04;8.9;;;2.8;;
6561;SDS011;3314;50.890;4.722;2023-04-24T11:21:09;11.2;;;2.8;;
6561;SDS011;3314;50.890;4.722;2023-04-24T11:23:09;24.7;;;3.1;;
6561;SDS011;3314;50.890;4.722;2023-04-24T11:25:12;16.6;;;3.5;;
6561;SDS011;3314;50.890;4.722;2023-04-24T11:27:06;16.5;;;2.6;;
6561;SDS011;3314;50.890;4.722;2023-04-24T11:29:07;9.7;;;2.7;;
6561;SDS011;3314;50.890;4.722;2023-04-24T11:31:34;13.4;;;2.7;;
6561;SDS011;3314;50.890;4.722;2023-04-24T11:33:09;11.6;;;2.6;;
6561;SDS011;3314;50.890;4.722;2023-04-24T11:35:13;8.9;;;2.9;;
6561;SDS011;3314;50.890;4.722;2023-04-24T11:37:01;13.1;;;2.9;;
6561;SDS011;3314;50.890;4.722;2023-04-24T11:39:01;10.0;;;3.0;;
6561;SDS011;3314;50.890;4.722;2023-04-24T11:41:03;12.4;;;3.0;;
6561;SDS011;3314;50.890;4.722;2023-04-24T11:43:04;13.4;;;3.1;;
6561;SDS011;3314;50.890;4.722;2023-04-24T11:45:07;13.8;;;2.5;;
6561;SDS011;3314;50.890;4.722;2023-04-24T11:47:08;10.3;;;2.8;;
6561;SDS011;3314;50.890;4.722;2023-04-24T11:49:08;13.8;;;2.8;;
6561;SDS011;3314;50.890;4.722;2023-04-24T11:51:07;9.4;;;2.7;;
6561;SDS011;3314;50.890;4.722;2023-04-24T11:53:07;11.1;;;3.2;;
6561;SDS011;3314;50.890;4.722;2023-04-24T11:55:07;11.1;;;2.7;;
6561;SDS011;3314;50.890;4.722;2023-04-24T11:57:07;9.7;;;2.6;;
6561;SDS011;3314;50.890;4.722;2023-04-24T11:59:07;11.5;;;3.1;;
6561;SDS011;3314;50.890;4.722;2023-04-24T12:00:57;12.5;;;3.4;;
6561;SDS011;3314;50.890;4.722;2023-04-24T12:03:04;10.6;;;2.9;;
6561;SDS011;3314;50.890;4.722;2023-04-24T12:05:05;10.5;;;2.7;;
6561;SDS011;3314;50.890;4.722;2023-04-24T12:07:05;11.1;;;2.5;;
6561;SDS011;3314;50.890;4.722;2023-04-24T12:09:05;8.8;;;2.7;;
6561;SDS011;3314;50.890;4.722;2023-04-24T12:11:07;10.0;;;2.3;;
6561;SDS011;3314;50.890;4.722;2023-04-24T12:12:56;9.9;;;2.8;;
6561;SDS011;3314;50.890;4.722;2023-04-24T12:14:56;12.8;;;2.8;;
6561;SDS011;3314;50.890;4.722;2023-04-24T12:16:57;10.3;;;2.6;;
6561;SDS011;3314;50.890;4.722;2023-04-24T12:18:57;11.5;;;3.4;;
6561;SDS011;3314;50.890;4.722;2023-04-24T12:21:14;11.3;;;2.7;;
6561;SDS011;3314;50.890;4.722;2023-04-24T12:23:02;14.2;;;4.1;;
6561;SDS011;3314;50.890;4.722;2023-04-24T12:25:02;10.1;;;2.8;;
6561;SDS011;3314;50.890;4.722;2023-04-24T12:27:02;8.6;;;2.5;;
6561;SDS011;3314;50.890;4.722;2023-04-24T12:29:02;12.2;;;2.5;;
6561;SDS011;3314;50.890;4.722;2023-04-24T12:31:02;10.4;;;3.0;;
6561;SDS011;3314;50.890;4.722;2023-04-24T12:33:02;10.6;;;2.8;;
6561;SDS011;3314;50.890;4.722;2023-04-24T12:34:52;13.9;;;3.4;;
6561;SDS011;3314;50.890;4.722;2023-04-24T12:36:52;14.6;;;2.8;;